Time;durP1;ratioP1;P1;durP2;ratioP2;P2;SDS_P1;SDS_P2;PMS_P1;PMS_P2;Temp;Humidity;BMP_temperature;BMP_pressure;BME280_temperature;BME280_humidity;BME280_pressure;Samples;Min_cycle;Max_cycle;Signal;HPM_P1;HPM_P2
2022/12/27 00:00:16;;;;;;;12.70;1.92;;;3.90;99.90;;;;;;5020331;28;20494;-70
2022/12/27 00:02:42;;;;;;;7.40;1.08;;;3.90;99.90;;;;;;5017864;28;20026;-71
2022/12/27 00:05:09;;;;;;;7.13;1.02;;;3.90;99.90;;;;;;5019947;28;20370;-70
2022/12/27 00:07:34;;;;;;;5.70;1.45;;;3.80;99.90;;;;;;5018717;28;20099;-70
2022/12/27 00:10:00;;;;;;;13.00;1.98;;;3.90;99.90;;;;;;5018922;28;20488;-69
2022/12/27 00:12:26;;;;;;;9.10;1.70;;;3.90;99.90;;;;;;5019282;28;20025;-71
2022/12/27 00:14:52;;;;;;;9.75;1.15;;;3.80;99.90;;;;;;5001116;28;20041;-71
2022/12/27 00:17:17;;;;;;;7.28;1.33;;;3.80;99.90;;;;;;5020392;28;20936;-70
2022/12/27 00:19:43;;;;;;;6.43;1.08;;;3.80;99.90;;;;;;5020822;28;20395;-70
2022/12/27 00:22:08;;;;;;;6.43;1.30;;;3.80;99.90;;;;;;5016712;28;20125;-69
2022/12/27 00:24:34;;;;;;;6.85;1.05;;;3.80;99.90;;;;;;5000993;28;20034;-70
2022/12/27 00:27:00;;;;;;;6.65;1.10;;;3.90;99.90;;;;;;5012578;28;20048;-72
2022/12/27 00:29:25;;;;;;;10.32;1.67;;;4.00;99.90;;;;;;5001115;28;20041;-70
2022/12/27 00:31:51;;;;;;;9.82;1.98;;;4.10;99.90;;;;;;5019655;28;20041;-71
2022/12/27 00:34:17;;;;;;;11.02;1.17;;;4.20;99.90;;;;;;5019143;28;20109;-72
2022/12/27 00:36:42;;;;;;;9.32;1.15;;;4.40;99.90;;;;;;5019489;28;20061;-71
2022/12/27 00:39:09;;;;;;;5.05;0.88;;;4.50;99.90;;;;;;5016487;28;20053;-71
2022/12/27 00:41:35;;;;;;;16.13;1.92;;;4.50;99.90;;;;;;5020867;28;20030;-70
2022/12/27 00:44:01;;;;;;;7.70;1.00;;;4.50;99.90;;;;;;5016511;28;21537;-71
2022/12/27 00:46:27;;;;;;;11.02;1.88;;;4.60;99.90;;;;;;5019038;28;20100;-70
2022/12/27 00:48:54;;;;;;;6.93;1.25;;;4.60;99.90;;;;;;5018381;28;20425;-70
2022/12/27 00:51:22;;;;;;;7.70;1.75;;;4.70;99.90;;;;;;5016873;28;20033;-70
2022/12/27 00:53:49;;;;;;;16.80;1.80;;;4.70;99.90;;;;;;5019585;28;20391;-71
2022/12/27 00:56:20;;;;;;;7.40;1.77;;;4.70;99.90;;;;;;5016722;28;20034;-71
2022/12/27 00:58:46;;;;;;;4.60;0.82;;;4.80;99.90;;;;;;5019913;28;20044;-70
2022/12/27 01:01:19;;;;;;;9.90;1.80;;;4.80;99.90;;;;;;5016080;28;20026;-70
2022/12/27 01:03:45;;;;;;;8.43;0.95;;;4.90;99.90;;;;;;5017358;28;20037;-70
2022/12/27 01:06:17;;;;;;;9.65;0.85;;;4.90;99.90;;;;;;5019575;28;20391;-69
2022/12/27 01:08:43;;;;;;;12.45;1.85;;;4.90;99.90;;;;;;5016435;28;20026;-70
2022/12/27 01:11:10;;;;;;;9.38;2.80;;;4.90;99.90;;;;;;5014516;28;20109;-70
2022/12/27 01:13:36;;;;;;;7.80;1.40;;;4.90;99.90;;;;;;5013720;28;20049;-70
2022/12/27 01:16:08;;;;;;;6.15;1.00;;;4.90;99.90;;;;;;5016158;28;20041;-70
2022/12/27 01:18:34;;;;;;;6.43;1.60;;;4.80;99.90;;;;;;5020202;28;20040;-70
2022/12/27 01:21:04;;;;;;;10.27;1.42;;;4.80;99.90;;;;;;5015849;28;20030;-70
2022/12/27 01:23:30;;;;;;;9.65;1.67;;;4.80;99.90;;;;;;5017593;28;20060;-70
2022/12/27 01:26:05;;;;;;;11.45;1.75;;;4.80;99.90;;;;;;5012972;28;20030;-70
2022/12/27 01:28:31;;;;;;;5.22;0.80;;;4.90;99.90;;;;;;5018392;28;20812;-70
2022/12/27 01:30:57;;;;;;;6.32;1.88;;;4.90;99.90;;;;;;5016244;28;20028;-71
2022/12/27 01:33:22;;;;;;;4.53;0.75;;;5.00;99.90;;;;;;5017194;28;20067;-70
2022/12/27 01:35:48;;;;;;;3.97;1.00;;;5.00;99.90;;;;;;5018028;28;20037;-70
2022/12/27 01:38:14;;;;;;;1.55;0.65;;;4.90;99.90;;;;;;5015825;28;20037;-70
2022/12/27 01:40:40;;;;;;;7.40;1.17;;;4.80;99.90;;;;;;5018722;28;20037;-70
2022/12/27 01:43:13;;;;;;;7.22;1.05;;;4.90;99.90;;;;;;5014644;28;20099;-71
2022/12/27 01:45:39;;;;;;;8.50;0.95;;;4.90;99.90;;;;;;4995164;28;20038;-70
2022/12/27 01:48:21;;;;;;;5.53;0.80;;;4.90;99.90;;;;;;5018753;28;20515;-71
2022/12/27 01:50:58;;;;;;;14.52;1.30;;;4.90;99.90;;;;;;5014674;28;20121;-71
2022/12/27 01:53:32;;;;;;;6.28;1.23;;;4.90;99.90;;;;;;5015858;28;20044;-70
2022/12/27 01:56:01;;;;;;;5.00;1.60;;;4.90;99.90;;;;;;5000592;28;20034;-71
2022/12/27 01:58:32;;;;;;;10.67;2.20;;;4.90;99.90;;;;;;5015046;28;20041;-70
2022/12/27 02:00:58;;;;;;;4.53;0.85;;;4.80;99.90;;;;;;5014097;28;20646;-70
2022/12/27 02:03:34;;;;;;;14.07;1.90;;;4.90;99.90;;;;;;5016250;28;20040;-71
2022/12/27 02:06:01;;;;;;;12.15;2.28;;;4.80;99.90;;;;;;5019320;28;20141;-70
2022/12/27 02:08:56;;;;;;;7.13;1.08;;;4.80;99.90;;;;;;5020699;28;20096;-70
2022/12/27 02:14:12;;;;;;;4.18;1.08;;;4.70;99.90;;;;;;5015925;28;20040;-70
2022/12/27 02:16:38;;;;;;;7.50;1.20;;;4.60;99.90;;;;;;5023014;28;20032;-70
2022/12/27 02:19:22;;;;;;;7.65;1.50;;;4.60;99.90;;;;;;5018344;28;20030;-71
2022/12/27 02:22:12;;;;;;;7.18;1.10;;;4.60;99.90;;;;;;5019634;28;20116;-71
2022/12/27 02:25:15;;;;;;;4.70;0.88;;;4.50;99.90;;;;;;5017739;28;20041;-71
2022/12/27 02:28:18;;;;;;;6.22;1.75;;;4.40;99.90;;;;;;5016277;28;20034;-71
2022/12/27 02:30:45;;;;;;;5.72;1.48;;;4.40;99.90;;;;;;5018038;28;20106;-69
2022/12/27 02:33:19;;;;;;;4.15;0.90;;;4.40;99.90;;;;;;5019702;28;20038;-69
2022/12/27 02:35:54;;;;;;;9.68;1.63;;;4.30;99.90;;;;;;5022586;28;20132;-70
2022/12/27 02:38:33;;;;;;;11.32;1.65;;;4.30;99.90;;;;;;5020747;28;20030;-70
2022/12/27 02:55:37;;;;;;;12.73;1.10;;;4.30;99.90;;;;;;5015265;28;20288;-71
2022/12/27 02:58:29;;;;;;;6.05;1.33;;;4.30;99.90;;;;;;5014397;28;20088;-71
2022/12/27 03:04:46;;;;;;;12.13;1.83;;;4.30;99.90;;;;;;4963581;28;20567;-71
2022/12/27 03:07:36;;;;;;;8.52;1.27;;;4.30;99.90;;;;;;5017149;28;20048;-71
2022/12/27 03:16:25;;;;;;;8.07;1.98;;;4.40;99.90;;;;;;4946920;28;20335;-70
2022/12/27 03:25:26;;;;;;;5.10;1.65;;;4.40;99.90;;;;;;5015522;28;20557;-70
2022/12/27 03:27:34;;;;;;;14.52;1.80;;;4.60;99.90;;;;;;5016493;28;20048;-70
2022/12/27 03:33:12;;;;;;;12.50;2.13;;;4.60;99.90;;;;;;5017042;28;20117;-70
2022/12/27 03:39:04;;;;;;;11.95;2.38;;;4.50;99.90;;;;;;5015838;28;20088;-71
2022/12/27 03:44:41;;;;;;;5.85;1.27;;;4.40;99.90;;;;;;4942840;28;20698;-70
2022/12/27 03:47:32;;;;;;;5.47;1.00;;;4.40;99.90;;;;;;4939744;28;20039;-70
2022/12/27 03:50:28;;;;;;;13.80;1.40;;;4.40;99.90;;;;;;4986848;28;20490;-69
2022/12/27 03:53:05;;;;;;;10.75;1.50;;;4.30;99.90;;;;;;5020899;28;20026;-70
2022/12/27 03:55:30;;;;;;;8.80;1.40;;;4.30;99.90;;;;;;5014180;28;20049;-70
2022/12/27 03:57:56;;;;;;;11.27;1.38;;;4.30;99.90;;;;;;5021731;28;20025;-70
2022/12/27 04:00:22;;;;;;;14.88;2.35;;;4.30;99.90;;;;;;5017232;28;20033;-71
2022/12/27 04:02:47;;;;;;;9.25;2.00;;;4.20;99.90;;;;;;5020085;28;20132;-70
2022/12/27 04:05:13;;;;;;;17.42;1.42;;;4.20;99.90;;;;;;5018669;28;20083;-71
2022/12/27 04:35:00;;;;;;;9.27;2.03;;;4.20;99.90;;;;;;5017365;28;20488;-69
2022/12/27 04:37:26;;;;;;;5.20;1.50;;;4.20;99.90;;;;;;5017621;28;20121;-71
2022/12/27 04:56:21;;;;;;;7.45;1.25;;;4.20;99.90;;;;;;5016483;28;20100;-70
2022/12/27 05:04:15;;;;;;;12.27;1.27;;;4.20;99.90;;;;;;5016229;28;20103;-70
2022/12/27 05:06:40;;;;;;;15.95;1.90;;;4.10;99.90;;;;;;5018158;28;20490;-69
2022/12/27 05:14:45;;;;;;;7.78;0.95;;;4.20;99.90;;;;;;4930081;28;20475;-71
2022/12/27 05:17:10;;;;;;;9.27;1.15;;;4.20;99.90;;;;;;5016062;28;20040;-71
2022/12/27 05:19:36;;;;;;;7.47;1.40;;;4.20;99.90;;;;;;5017764;28;20041;-70
2022/12/27 05:27:30;;;;;;;10.23;1.77;;;4.10;99.90;;;;;;5014453;28;20406;-71
2022/12/27 05:29:56;;;;;;;8.60;1.33;;;4.10;99.90;;;;;;5016325;28;20038;-70
2022/12/27 05:32:21;;;;;;;9.98;1.80;;;4.10;99.90;;;;;;5018961;28;20041;-71
2022/12/27 05:34:47;;;;;;;9.88;1.40;;;4.10;99.90;;;;;;5016509;28;20030;-70
2022/12/27 05:37:13;;;;;;;7.97;1.48;;;4.20;99.90;;;;;;5017383;28;20042;-71
2022/12/27 05:39:38;;;;;;;19.05;1.38;;;4.10;99.90;;;;;;5001703;28;20525;-71
2022/12/27 05:42:04;;;;;;;11.93;2.13;;;4.10;99.90;;;;;;5017148;28;20033;-71
2022/12/27 05:44:29;;;;;;;12.82;2.08;;;4.10;99.90;;;;;;5016190;28;20192;-70
2022/12/27 05:46:55;;;;;;;7.45;1.27;;;4.20;99.90;;;;;;5001613;28;20032;-71
2022/12/27 05:49:21;;;;;;;6.63;1.38;;;4.10;99.90;;;;;;4997608;28;20042;-70
2022/12/27 05:51:46;;;;;;;16.48;2.00;;;4.10;99.90;;;;;;5011533;28;20025;-69
2022/12/27 05:54:12;;;;;;;9.68;1.52;;;4.10;99.90;;;;;;5013941;28;20037;-70
2022/12/27 05:56:38;;;;;;;8.43;1.35;;;4.10;99.90;;;;;;5015781;28;20049;-71
2022/12/27 05:59:05;;;;;;;14.27;1.50;;;4.10;99.90;;;;;;5016569;28;20113;-70
2022/12/27 06:01:31;;;;;;;7.40;1.67;;;4.00;99.90;;;;;;5018739;28;20544;-70
2022/12/27 06:03:56;;;;;;;5.72;1.55;;;4.00;99.90;;;;;;5016045;28;20042;-71
2022/12/27 06:06:22;;;;;;;13.32;1.20;;;4.00;99.90;;;;;;5018903;28;20072;-70
2022/12/27 06:08:48;;;;;;;13.68;2.55;;;4.00;99.90;;;;;;5016031;28;20113;-69
2022/12/27 06:11:18;;;;;;;11.90;1.83;;;4.00;99.90;;;;;;5017791;28;20033;-70
2022/12/27 06:13:48;;;;;;;;;;;4.00;99.90;;;;;;5016689;28;20036;-71
2022/12/27 06:16:13;;;;;;;14.02;2.38;;;4.00;99.90;;;;;;5017388;28;19913;-71
2022/12/27 06:18:40;;;;;;;7.25;1.98;;;4.00;99.90;;;;;;5016892;28;20045;-70
2022/12/27 06:21:12;;;;;;;16.95;2.22;;;4.00;99.90;;;;;;5016796;28;20037;-69
2022/12/27 06:23:39;;;;;;;9.85;1.30;;;3.90;99.90;;;;;;5013840;28;20030;-71
2022/12/27 06:26:06;;;;;;;9.55;2.42;;;4.00;99.90;;;;;;4994954;28;20477;-70
2022/12/27 06:28:33;;;;;;;10.20;2.17;;;3.90;99.90;;;;;;5017213;28;20030;-69
2022/12/27 06:31:00;;;;;;;6.97;1.60;;;3.90;99.90;;;;;;5017281;28;20038;-69
2022/12/27 06:33:26;;;;;;;12.65;1.80;;;3.90;99.90;;;;;;4997773;28;20100;-70
2022/12/27 06:35:51;;;;;;;6.22;1.00;;;3.90;99.90;;;;;;5016001;28;20449;-70
2022/12/27 06:38:17;;;;;;;11.65;1.50;;;3.90;99.90;;;;;;5010277;28;20046;-70
2022/12/27 06:40:42;;;;;;;12.52;2.20;;;3.90;99.90;;;;;;5016846;28;20033;-70
2022/12/27 06:43:08;;;;;;;8.85;1.35;;;3.90;99.90;;;;;;5008826;28;20034;-70
2022/12/27 06:45:34;;;;;;;13.85;1.88;;;3.90;99.90;;;;;;5012306;28;20121;-69
2022/12/27 06:47:59;;;;;;;17.10;1.60;;;3.90;99.90;;;;;;5012750;28;20121;-70
2022/12/27 06:50:25;;;;;;;10.45;1.58;;;3.90;99.90;;;;;;5012156;28;20117;-70
2022/12/27 06:52:50;;;;;;;12.40;1.48;;;3.80;99.90;;;;;;5022097;28;20130;-71
2022/12/27 06:55:16;;;;;;;9.23;1.15;;;3.90;99.90;;;;;;5022516;28;20065;-71
2022/12/27 06:57:42;;;;;;;10.63;0.98;;;3.80;99.90;;;;;;5014800;28;20065;-71
2022/12/27 07:00:08;;;;;;;5.93;0.88;;;3.80;99.90;;;;;;5018796;28;20111;-70
2022/12/27 07:02:33;;;;;;;10.95;1.65;;;3.80;99.90;;;;;;5020157;28;20106;-68
2022/12/27 07:04:59;;;;;;;12.85;1.92;;;3.90;99.90;;;;;;5019293;28;20099;-70
2022/12/27 07:07:25;;;;;;;11.73;2.08;;;3.90;99.90;;;;;;5019671;28;20037;-69
2022/12/27 07:09:50;;;;;;;8.05;0.90;;;3.90;99.90;;;;;;5009774;28;20038;-70
2022/12/27 07:12:16;;;;;;;11.85;2.05;;;3.80;99.90;;;;;;4999902;28;20735;-70
2022/12/27 07:14:41;;;;;;;10.27;1.40;;;3.80;99.90;;;;;;5017217;28;20041;-70
2022/12/27 07:17:07;;;;;;;4.82;1.00;;;3.80;99.90;;;;;;5016619;28;20029;-70
2022/12/27 07:19:33;;;;;;;8.38;1.20;;;3.80;99.90;;;;;;5019398;28;20037;-70
2022/12/27 07:21:58;;;;;;;12.93;2.72;;;3.80;99.90;;;;;;5019644;28;20689;-70
2022/12/27 07:24:24;;;;;;;11.98;1.15;;;3.80;99.90;;;;;;5020199;28;20398;-70
2022/12/27 07:26:49;;;;;;;9.98;1.48;;;3.90;99.90;;;;;;5021189;28;20041;-68
2022/12/27 07:29:15;;;;;;;6.82;0.90;;;3.90;99.90;;;;;;5016383;28;20045;-70
2022/12/27 07:31:40;;;;;;;9.63;1.88;;;3.90;99.90;;;;;;5020544;28;20044;-71
2022/12/27 07:34:06;;;;;;;8.55;1.10;;;3.80;99.90;;;;;;5016693;28;20077;-70
2022/12/27 07:36:38;;;;;;;16.70;2.08;;;3.80;99.90;;;;;;4999654;28;20037;-71
2022/12/27 07:39:05;;;;;;;8.15;1.35;;;3.80;99.90;;;;;;5018124;28;20042;-71
2022/12/27 07:41:30;;;;;;;12.73;3.60;;;3.80;99.90;;;;;;5018619;28;20033;-71
2022/12/27 07:43:56;;;;;;;7.50;1.10;;;3.80;99.90;;;;;;5017753;28;20038;-71
2022/12/27 07:46:24;;;;;;;17.33;2.70;;;3.80;99.90;;;;;;5019244;28;20132;-71
2022/12/27 07:48:55;;;;;;;5.32;1.30;;;3.80;99.90;;;;;;5017144;28;20418;-69
2022/12/27 07:51:22;;;;;;;13.43;2.85;;;3.80;99.90;;;;;;5019076;28;20061;-71
2022/12/27 07:53:48;;;;;;;12.32;1.98;;;3.80;99.90;;;;;;5015685;28;20497;-71
2022/12/27 07:56:18;;;;;;;15.18;2.03;;;3.80;99.90;;;;;;5016472;28;20057;-71
2022/12/27 07:58:46;;;;;;;12.45;2.40;;;3.80;99.90;;;;;;5013223;28;20120;-71
2022/12/27 08:01:13;;;;;;;6.78;1.77;;;3.70;99.90;;;;;;5012447;28;20057;-71
2022/12/27 08:03:40;;;;;;;11.27;1.25;;;3.80;99.90;;;;;;5006940;28;20029;-71
2022/12/27 08:06:07;;;;;;;16.95;2.00;;;3.80;99.90;;;;;;5006356;28;20717;-70
2022/12/27 08:08:42;;;;;;;7.05;1.30;;;3.80;99.90;;;;;;5007913;28;20030;-71
2022/12/27 08:11:08;;;;;;;17.30;2.25;;;3.80;99.90;;;;;;4998983;28;20387;-71
2022/12/27 08:13:34;;;;;;;11.38;1.95;;;3.80;99.90;;;;;;5018681;28;20132;-71
2022/12/27 08:16:00;;;;;;;9.38;1.98;;;3.80;99.90;;;;;;5019353;28;20026;-71
2022/12/27 08:18:27;;;;;;;6.53;2.50;;;3.80;99.90;;;;;;5018643;28;20031;-71
2022/12/27 08:20:53;;;;;;;10.98;2.85;;;3.90;99.90;;;;;;5012390;28;20107;-71
2022/12/27 08:23:19;;;;;;;6.65;1.50;;;3.90;99.90;;;;;;5020655;28;20030;-70
2022/12/27 08:25:44;;;;;;;9.55;1.95;;;4.00;99.90;;;;;;5021684;28;20034;-71
2022/12/27 08:28:12;;;;;;;6.78;1.60;;;4.10;99.90;;;;;;5016941;28;20030;-71
2022/12/27 08:30:40;;;;;;;10.02;1.95;;;4.20;99.90;;;;;;5020604;28;20572;-71
2022/12/27 08:33:06;;;;;;;10.55;2.30;;;4.30;99.90;;;;;;5017102;28;20034;-71
2022/12/27 08:35:31;;;;;;;10.45;1.58;;;4.30;99.90;;;;;;5020142;28;20121;-71
2022/12/27 08:38:00;;;;;;;6.22;1.80;;;4.30;99.90;;;;;;5020328;28;20108;-72
2022/12/27 08:40:26;;;;;;;9.52;1.90;;;4.30;99.90;;;;;;5000748;28;20046;-71
2022/12/27 08:42:51;;;;;;;8.00;1.85;;;4.30;99.90;;;;;;5018492;28;20030;-70
2022/12/27 08:45:17;;;;;;;15.57;2.67;;;4.30;99.90;;;;;;5018782;28;20429;-71
2022/12/27 08:47:42;;;;;;;11.20;2.00;;;4.20;99.90;;;;;;5017252;28;20030;-71
2022/12/27 08:50:08;;;;;;;8.65;1.70;;;4.20;99.90;;;;;;5013253;28;20112;-69
2022/12/27 08:52:34;;;;;;;5.35;1.30;;;4.20;99.90;;;;;;5019790;28;20029;-71
2022/12/27 08:55:00;;;;;;;9.02;1.20;;;4.20;99.90;;;;;;5016501;28;20393;-70
2022/12/27 08:57:25;;;;;;;6.85;2.00;;;4.20;99.90;;;;;;5018030;28;20037;-72
2022/12/27 08:59:51;;;;;;;8.30;1.70;;;4.20;99.90;;;;;;5019629;28;20454;-71
2022/12/27 09:02:16;;;;;;;6.65;1.58;;;4.20;99.90;;;;;;5016518;28;20041;-71
2022/12/27 09:04:42;;;;;;;15.93;2.03;;;4.20;99.90;;;;;;5018566;28;20042;-71
2022/12/27 09:07:07;;;;;;;10.93;2.53;;;4.20;99.90;;;;;;5011824;28;20831;-70
2022/12/27 09:09:33;;;;;;;10.82;1.73;;;4.20;99.90;;;;;;5013686;28;20105;-71
2022/12/27 09:11:59;;;;;;;12.00;2.60;;;4.30;99.90;;;;;;5013063;28;20030;-70
2022/12/27 09:14:24;;;;;;;11.93;2.42;;;4.30;99.90;;;;;;5017339;28;20054;-70
2022/12/27 09:16:50;;;;;;;10.88;2.17;;;4.30;99.90;;;;;;5011478;28;20037;-72
2022/12/27 09:19:16;;;;;;;14.57;2.60;;;4.40;99.90;;;;;;5008249;28;20040;-71
2022/12/27 09:21:42;;;;;;;13.00;2.85;;;4.40;99.90;;;;;;5016223;28;20124;-71
2022/12/27 09:24:12;;;;;;;9.10;2.40;;;4.40;99.90;;;;;;5011661;28;20115;-71
2022/12/27 09:26:37;;;;;;;11.25;2.30;;;4.50;99.90;;;;;;5010724;28;20030;-72
2022/12/27 09:29:03;;;;;;;13.50;2.65;;;4.50;99.90;;;;;;5018550;28;20493;-72
2022/12/27 09:31:29;;;;;;;7.05;2.70;;;4.50;99.90;;;;;;5019963;28;20041;-71
2022/12/27 09:33:55;;;;;;;12.10;2.60;;;4.60;99.90;;;;;;5017767;28;20525;-70
2022/12/27 09:36:23;;;;;;;9.80;2.10;;;4.60;99.90;;;;;;5017114;28;20060;-71
2022/12/27 09:38:51;;;;;;;16.02;3.45;;;4.60;99.90;;;;;;5017370;28;20048;-71
2022/12/27 09:41:42;;;;;;;8.40;2.63;;;4.60;99.90;;;;;;5000127;28;20079;-71
2022/12/27 09:44:28;;;;;;;22.90;3.20;;;4.60;99.90;;;;;;5011369;28;20029;-71
2022/12/27 09:47:00;;;;;;;13.93;2.08;;;4.60;99.90;;;;;;5016113;28;20795;-71
2022/12/27 09:49:33;;;;;;;10.82;2.30;;;4.60;99.90;;;;;;4997896;28;20036;-69
2022/12/27 09:52:11;;;;;;;12.55;2.60;;;4.60;99.90;;;;;;5012092;28;20452;-71
2022/12/27 09:54:43;;;;;;;7.78;2.00;;;4.60;99.90;;;;;;5010986;28;20494;-72
2022/12/27 09:57:26;;;;;;;10.80;2.33;;;4.50;99.90;;;;;;5011844;28;20136;-72
2022/12/27 09:59:57;;;;;;;10.18;2.60;;;4.50;99.90;;;;;;5005681;28;20041;-72
2022/12/27 10:02:25;;;;;;;9.40;2.47;;;4.50;99.90;;;;;;5003650;28;20052;-72
2022/12/27 10:04:53;;;;;;;8.98;2.60;;;4.60;99.90;;;;;;5006333;28;20034;-72
2022/12/27 10:07:49;;;;;;;9.98;2.17;;;4.80;99.90;;;;;;5003551;28;20046;-71
2022/12/27 10:10:43;;;;;;;9.93;2.47;;;5.00;99.90;;;;;;5011750;28;20422;-71
2022/12/27 10:13:30;;;;;;;13.30;2.72;;;5.20;99.90;;;;;;5007536;28;20048;-72
2022/12/27 10:16:03;;;;;;;8.98;2.55;;;5.20;99.90;;;;;;5015298;28;20032;-71
2022/12/27 10:18:35;;;;;;;8.85;2.72;;;5.30;99.90;;;;;;5016887;28;20514;-71
2022/12/27 10:21:16;;;;;;;5.85;2.58;;;5.40;99.90;;;;;;5015612;28;20053;-71
2022/12/27 10:23:49;;;;;;;9.77;2.53;;;5.40;99.90;;;;;;5013051;28;20045;-69
2022/12/27 10:26:18;;;;;;;8.00;2.63;;;5.40;99.90;;;;;;5014215;28;20041;-71
2022/12/27 10:29:15;;;;;;;12.25;2.75;;;5.60;99.90;;;;;;5020411;28;20038;-71
2022/12/27 10:31:42;;;;;;;8.68;3.13;;;5.60;99.90;;;;;;5008818;28;20030;-72
2022/12/27 10:34:12;;;;;;;6.47;2.58;;;5.70;99.90;;;;;;5021671;28;20033;-71
2022/12/27 10:36:40;;;;;;;9.40;2.78;;;5.70;99.90;;;;;;5016051;28;20050;-71
2022/12/27 10:39:16;;;;;;;9.48;2.67;;;5.70;99.90;;;;;;5021874;28;20140;-71
2022/12/27 10:42:07;;;;;;;8.93;2.55;;;5.70;99.90;;;;;;5017283;28;20622;-72
2022/12/27 10:44:33;;;;;;;7.38;2.05;;;5.80;99.90;;;;;;5011716;28;20038;-73
2022/12/27 10:46:58;;;;;;;13.63;3.47;;;5.80;99.90;;;;;;5020922;28;20037;-72
2022/12/27 10:49:29;;;;;;;7.93;2.33;;;5.90;99.90;;;;;;5001890;28;20033;-72
2022/12/27 10:51:57;;;;;;;7.97;2.60;;;5.90;99.90;;;;;;5022095;28;20041;-72
2022/12/27 10:54:23;;;;;;;45.97;3.75;;;6.00;99.90;;;;;;5017178;28;20637;-72
2022/12/27 10:56:48;;;;;;;8.55;2.50;;;6.00;99.90;;;;;;5016509;28;20038;-71
2022/12/27 10:59:17;;;;;;;7.82;2.97;;;6.00;99.90;;;;;;5014591;28;20394;-70
2022/12/27 11:01:44;;;;;;;8.52;2.15;;;6.20;99.90;;;;;;4993349;28;20057;-70
2022/12/27 11:04:16;;;;;;;13.52;2.45;;;6.30;99.90;;;;;;5008728;28;20038;-72
2022/12/27 11:06:42;;;;;;;7.65;2.47;;;6.50;99.90;;;;;;5008682;28;20056;-71
2022/12/27 11:09:34;;;;;;;9.38;2.67;;;6.70;99.90;;;;;;5006317;28;20169;-69
2022/12/27 11:12:28;;;;;;;9.23;2.25;;;6.80;99.90;;;;;;5007756;28;20556;-69
2022/12/27 11:14:53;;;;;;;20.90;3.80;;;6.70;99.90;;;;;;5006637;28;20056;-71
2022/12/27 11:17:37;;;;;;;13.57;2.40;;;6.70;99.90;;;;;;4989224;28;20042;-71
2022/12/27 11:20:28;;;;;;;9.90;2.15;;;6.70;99.90;;;;;;5006456;28;20049;-72
2022/12/27 11:22:55;;;;;;;7.00;2.90;;;6.70;99.90;;;;;;4989469;28;20108;-72
2022/12/27 11:25:22;;;;;;;8.40;2.97;;;6.60;99.90;;;;;;5005111;28;20073;-71
2022/12/27 11:27:52;;;;;;;12.40;2.40;;;6.70;99.90;;;;;;5014053;28;20116;-71
2022/12/27 11:30:23;;;;;;;8.45;2.10;;;6.60;99.90;;;;;;5017839;28;20061;-72
2022/12/27 11:32:50;;;;;;;5.32;1.85;;;6.60;99.90;;;;;;5018964;28;20494;-71
2022/12/27 11:35:21;;;;;;;9.40;2.58;;;6.60;99.90;;;;;;5016100;28;20052;-71
2022/12/27 11:37:48;;;;;;;10.50;3.30;;;6.50;99.90;;;;;;5017167;28;20100;-71
2022/12/27 11:40:34;;;;;;;6.45;1.95;;;6.60;99.90;;;;;;5012744;28;20026;-71
2022/12/27 11:43:09;;;;;;;12.88;2.78;;;6.70;99.90;;;;;;5014314;28;20478;-71
2022/12/27 11:45:49;;;;;;;10.35;2.53;;;6.80;99.90;;;;;;5010509;28;20022;-72
2022/12/27 11:48:25;;;;;;;7.60;1.90;;;6.90;99.90;;;;;;5014193;28;20125;-69
2022/12/27 11:51:13;;;;;;;6.03;1.95;;;6.90;99.90;;;;;;5001802;28;20062;-72
2022/12/27 11:54:05;;;;;;;4.97;2.33;;;7.00;99.90;;;;;;5014637;28;20053;-72
2022/12/27 11:56:44;;;;;;;5.32;2.13;;;7.00;99.90;;;;;;5010437;28;20033;-70
2022/12/27 11:59:12;;;;;;;14.60;2.50;;;7.10;99.90;;;;;;5013982;28;20035;-71
2022/12/27 12:02:05;;;;;;;9.20;2.10;;;7.10;99.90;;;;;;5009353;28;20046;-71
2022/12/27 12:04:46;;;;;;;7.70;3.53;;;7.10;99.90;;;;;;4991954;28;20541;-71
2022/12/27 12:07:30;;;;;;;11.20;2.38;;;7.20;99.90;;;;;;5017121;28;20042;-71
2022/12/27 12:10:09;;;;;;;5.10;1.70;;;7.20;99.90;;;;;;5019179;28;20471;-72
2022/12/27 12:12:57;;;;;;;9.88;2.72;;;7.10;99.90;;;;;;5012796;28;20109;-71
2022/12/27 12:15:26;;;;;;;7.88;2.20;;;7.10;99.90;;;;;;5015689;28;20050;-70
2022/12/27 12:18:14;;;;;;;6.78;2.00;;;7.10;99.90;;;;;;5019492;28;20042;-71
2022/12/27 12:20:45;;;;;;;12.90;1.98;;;7.20;99.90;;;;;;5015771;28;20042;-71
2022/12/27 12:23:41;;;;;;;12.48;2.15;;;7.20;99.90;;;;;;5018401;28;20029;-70
2022/12/27 12:26:16;;;;;;;9.95;2.65;;;7.20;99.90;;;;;;5005701;28;20084;-68
2022/12/27 12:29:17;;;;;;;14.35;2.40;;;7.20;99.90;;;;;;5019883;28;20556;-70
2022/12/27 12:31:59;;;;;;;8.80;2.00;;;7.20;99.90;;;;;;4999146;28;20037;-71
2022/12/27 12:34:43;;;;;;;12.13;2.63;;;7.10;99.90;;;;;;5020032;28;20706;-68
2022/12/27 12:37:18;;;;;;;6.60;1.90;;;7.10;99.90;;;;;;4997725;28;20092;-69
2022/12/27 12:40:02;;;;;;;6.30;2.28;;;7.20;99.90;;;;;;5018608;28;20124;-70
2022/12/27 12:43:00;;;;;;;6.97;2.53;;;7.10;99.90;;;;;;5012448;28;20030;-69
2022/12/27 12:45:42;;;;;;;4.97;2.40;;;7.10;99.90;;;;;;4964768;28;20037;-71
2022/12/27 12:48:55;;;;;;;6.07;1.92;;;7.20;99.90;;;;;;5014767;28;20069;-71
2022/12/27 12:51:45;;;;;;;10.60;1.67;;;7.20;99.90;;;;;;4999460;28;20046;-71
2022/12/27 12:54:38;;;;;;;10.95;1.65;;;7.20;99.90;;;;;;5013542;28;20033;-72
2022/12/27 12:57:22;;;;;;;9.20;1.73;;;7.20;99.90;;;;;;5012718;28;20498;-71
2022/12/27 13:00:08;;;;;;;10.63;2.17;;;7.30;99.90;;;;;;5019478;28;20604;-71
2022/12/27 13:03:11;;;;;;;4.13;1.45;;;7.30;99.90;;;;;;5013254;28;20117;-72
2022/12/27 13:05:46;;;;;;;10.25;2.00;;;7.40;99.90;;;;;;5013810;28;20536;-72
2022/12/27 13:08:29;;;;;;;6.22;1.45;;;7.50;99.90;;;;;;5015118;28;20113;-71
2022/12/27 13:11:22;;;;;;;7.00;1.95;;;7.50;99.90;;;;;;4985376;28;20056;-72
2022/12/27 13:14:08;;;;;;;9.00;2.63;;;7.60;99.90;;;;;;5005940;28;20154;-68
2022/12/27 13:16:52;;;;;;;6.53;2.42;;;7.60;99.90;;;;;;5003610;28;20076;-70
2022/12/27 13:19:35;;;;;;;7.20;1.42;;;7.60;99.90;;;;;;5005817;28;20021;-69
2022/12/27 13:22:58;;;;;;;9.90;2.25;;;7.60;99.90;;;;;;5003641;28;20092;-69
2022/12/27 13:25:44;;;;;;;7.07;1.90;;;7.70;99.90;;;;;;4927346;29;20035;-69
2022/12/27 13:28:33;;;;;;;6.25;1.65;;;7.70;99.90;;;;;;5003471;28;20034;-69
2022/12/27 13:31:17;;;;;;;8.82;2.03;;;7.70;99.90;;;;;;4985681;28;20057;-69
2022/12/27 13:34:09;;;;;;;9.10;1.70;;;7.70;99.90;;;;;;5003363;28;20042;-69
2022/12/27 13:36:49;;;;;;;5.78;1.40;;;7.70;99.90;;;;;;5001119;28;20113;-70
2022/12/27 13:39:37;;;;;;;4.07;1.70;;;7.60;99.90;;;;;;5003211;28;20105;-69
2022/12/27 13:42:24;;;;;;;13.65;2.58;;;7.60;99.90;;;;;;5003550;28;20037;-68
2022/12/27 13:45:14;;;;;;;8.98;2.17;;;7.60;99.90;;;;;;5009677;28;20040;-68
2022/12/27 13:48:00;;;;;;;16.55;3.13;;;7.60;99.90;;;;;;5003097;28;20041;-69
2022/12/27 13:50:44;;;;;;;6.30;1.63;;;7.50;99.90;;;;;;5004401;28;20104;-70
2022/12/27 13:53:23;;;;;;;3.75;1.70;;;7.50;99.90;;;;;;5003131;28;20406;-69
2022/12/27 13:56:20;;;;;;;6.60;2.33;;;7.40;99.90;;;;;;5004360;28;20049;-72
2022/12/27 13:59:42;;;;;;;9.98;1.73;;;7.40;99.90;;;;;;5005514;28;20026;-71
2022/12/27 14:02:47;;;;;;;8.32;2.08;;;7.40;99.90;;;;;;4907686;29;20079;-71
2022/12/27 14:05:33;;;;;;;3.88;1.23;;;7.30;99.90;;;;;;4918468;29;20139;-72
2022/12/27 14:08:26;;;;;;;7.15;2.50;;;7.30;99.90;;;;;;4994664;28;20048;-71
2022/12/27 14:10:52;;;;;;;9.02;1.75;;;7.30;99.90;;;;;;5015446;28;20037;-71
2022/12/27 14:13:26;;;;;;;9.05;1.65;;;7.30;99.90;;;;;;5015823;28;20037;-74
2022/12/27 14:16:09;;;;;;;7.40;1.80;;;7.30;99.90;;;;;;5010881;28;20053;-72
2022/12/27 14:18:41;;;;;;;9.75;2.22;;;7.30;99.90;;;;;;5017558;28;20054;-73
2022/12/27 14:21:44;;;;;;;11.63;2.35;;;7.30;99.90;;;;;;5011890;28;20062;-71
2022/12/27 14:24:41;;;;;;;8.18;1.52;;;7.30;99.90;;;;;;5003603;28;20033;-70
2022/12/27 14:27:29;;;;;;;7.20;2.00;;;7.30;99.90;;;;;;5004828;28;20046;-70
2022/12/27 14:30:10;;;;;;;4.10;1.35;;;7.30;99.90;;;;;;5006097;28;20041;-69
2022/12/27 14:33:13;;;;;;;6.45;2.00;;;7.30;99.90;;;;;;5011737;28;20375;-69
2022/12/27 14:35:52;;;;;;;6.78;2.33;;;7.30;99.90;;;;;;5006905;28;20498;-69
2022/12/27 14:38:33;;;;;;;5.00;1.45;;;7.30;99.90;;;;;;5007714;28;20035;-70
2022/12/27 14:41:17;;;;;;;;;;;7.30;99.90;;;;;;5007579;28;20045;-70
2022/12/27 14:43:57;;;;;;;5.82;1.98;;;7.20;99.90;;;;;;5009369;28;20366;-69
2022/12/27 14:46:42;;;;;;;7.93;2.10;;;7.20;99.90;;;;;;4990313;28;20038;-70
2022/12/27 14:49:33;;;;;;;7.18;2.10;;;7.20;99.90;;;;;;4990805;28;20069;-69
2022/12/27 14:52:20;;;;;;;9.30;2.00;;;7.20;99.90;;;;;;5010104;28;20565;-69
2022/12/27 14:55:23;;;;;;;9.55;1.95;;;7.20;99.90;;;;;;5010103;28;20050;-71
2022/12/27 14:57:54;;;;;;;6.60;2.28;;;7.20;99.90;;;;;;5008411;28;20516;-71
2022/12/27 15:00:23;;;;;;;6.60;2.05;;;7.10;99.90;;;;;;5007280;28;20045;-68
2022/12/27 15:03:18;;;;;;;9.40;2.58;;;7.10;99.90;;;;;;5009666;28;20033;-71
2022/12/27 15:06:08;;;;;;;7.88;2.15;;;7.10;99.90;;;;;;4999809;28;20104;-69
2022/12/27 15:08:49;;;;;;;8.88;2.40;;;7.10;99.90;;;;;;5006973;28;20120;-70
2022/12/27 15:11:29;;;;;;;;;;;7.10;99.90;;;;;;5011870;28;20129;-70